sensor_id;sensor_type;location;lat;lon;timestamp;P1;durP1;ratioP1;P2;durP2;ratioP2
6406;SDS011;3236;51.022;6.818;2022-07-06T00:01:47;5.43;;;2.63;;
6406;SDS011;3236;51.022;6.818;2022-07-06T00:04:15;3.72;;;2.30;;
6406;SDS011;3236;51.022;6.818;2022-07-06T00:06:43;5.43;;;2.78;;
6406;SDS011;3236;51.022;6.818;2022-07-06T00:09:10;3.85;;;2.15;;
6406;SDS011;3236;51.022;6.818;2022-07-06T00:11:37;6.45;;;2.33;;
6406;SDS011;3236;51.022;6.818;2022-07-06T00:14:05;4.25;;;2.33;;
6406;SDS011;3236;51.022;6.818;2022-07-06T00:16:32;8.48;;;2.60;;
6406;SDS011;3236;51.022;6.818;2022-07-06T00:19:00;8.30;;;2.67;;
6406;SDS011;3236;51.022;6.818;2022-07-06T00:21:27;7.32;;;2.53;;
6406;SDS011;3236;51.022;6.818;2022-07-06T00:23:54;3.35;;;2.60;;
6406;SDS011;3236;51.022;6.818;2022-07-06T00:26:22;4.38;;;2.95;;
6406;SDS011;3236;51.022;6.818;2022-07-06T00:28:49;3.60;;;2.85;;
6406;SDS011;3236;51.022;6.818;2022-07-06T00:31:18;4.97;;;2.58;;
6406;SDS011;3236;51.022;6.818;2022-07-06T00:33:45;4.78;;;2.90;;
6406;SDS011;3236;51.022;6.818;2022-07-06T00:36:12;5.47;;;2.72;;
6406;SDS011;3236;51.022;6.818;2022-07-06T00:38:39;6.90;;;2.65;;
6406;SDS011;3236;51.022;6.818;2022-07-06T00:41:07;4.18;;;2.60;;
6406;SDS011;3236;51.022;6.818;2022-07-06T00:43:47;4.93;;;2.75;;
6406;SDS011;3236;51.022;6.818;2022-07-06T00:46:22;5.78;;;2.72;;
6406;SDS011;3236;51.022;6.818;2022-07-06T00:48:52;6.95;;;3.30;;
6406;SDS011;3236;51.022;6.818;2022-07-06T00:51:20;5.90;;;2.88;;
6406;SDS011;3236;51.022;6.818;2022-07-06T00:53:51;4.40;;;3.10;;
6406;SDS011;3236;51.022;6.818;2022-07-06T00:56:19;3.95;;;2.88;;
6406;SDS011;3236;51.022;6.818;2022-07-06T00:58:47;5.80;;;2.78;;
6406;SDS011;3236;51.022;6.818;2022-07-06T01:01:14;5.95;;;3.10;;
6406;SDS011;3236;51.022;6.818;2022-07-06T01:03:43;7.53;;;3.10;;
6406;SDS011;3236;51.022;6.818;2022-07-06T01:06:10;6.82;;;3.17;;
6406;SDS011;3236;51.022;6.818;2022-07-06T01:08:38;4.65;;;2.83;;
6406;SDS011;3236;51.022;6.818;2022-07-06T01:11:05;7.80;;;4.30;;
6406;SDS011;3236;51.022;6.818;2022-07-06T01:13:33;5.82;;;3.38;;
6406;SDS011;3236;51.022;6.818;2022-07-06T01:16:00;5.05;;;3.20;;
6406;SDS011;3236;51.022;6.818;2022-07-06T01:18:28;8.43;;;3.72;;
6406;SDS011;3236;51.022;6.818;2022-07-06T01:21:07;6.85;;;3.53;;
6406;SDS011;3236;51.022;6.818;2022-07-06T01:23:38;7.70;;;3.90;;
6406;SDS011;3236;51.022;6.818;2022-07-06T01:26:10;10.35;;;4.28;;
6406;SDS011;3236;51.022;6.818;2022-07-06T01:28:37;5.63;;;3.55;;
6406;SDS011;3236;51.022;6.818;2022-07-06T01:31:04;5.70;;;3.78;;
6406;SDS011;3236;51.022;6.818;2022-07-06T01:33:31;8.23;;;3.95;;
6406;SDS011;3236;51.022;6.818;2022-07-06T01:35:58;8.23;;;3.55;;
6406;SDS011;3236;51.022;6.818;2022-07-06T01:38:27;5.65;;;3.80;;
6406;SDS011;3236;51.022;6.818;2022-07-06T01:40:54;6.22;;;4.03;;
6406;SDS011;3236;51.022;6.818;2022-07-06T01:43:21;11.10;;;3.95;;
6406;SDS011;3236;51.022;6.818;2022-07-06T01:45:48;10.13;;;3.75;;
6406;SDS011;3236;51.022;6.818;2022-07-06T01:48:16;8.43;;;3.88;;
6406;SDS011;3236;51.022;6.818;2022-07-06T01:50:43;9.02;;;4.95;;
6406;SDS011;3236;51.022;6.818;2022-07-06T01:53:10;6.60;;;3.75;;
6406;SDS011;3236;51.022;6.818;2022-07-06T01:55:39;12.02;;;4.40;;
6406;SDS011;3236;51.022;6.818;2022-07-06T01:58:09;6.05;;;3.80;;
6406;SDS011;3236;51.022;6.818;2022-07-06T02:00:36;5.90;;;3.95;;
6406;SDS011;3236;51.022;6.818;2022-07-06T02:03:04;8.07;;;3.83;;
6406;SDS011;3236;51.022;6.818;2022-07-06T02:05:31;6.93;;;3.55;;
6406;SDS011;3236;51.022;6.818;2022-07-06T02:07:58;6.65;;;3.78;;
6406;SDS011;3236;51.022;6.818;2022-07-06T02:10:26;5.93;;;3.60;;
6406;SDS011;3236;51.022;6.818;2022-07-06T02:12:54;6.57;;;4.18;;
6406;SDS011;3236;51.022;6.818;2022-07-06T02:15:21;12.25;;;4.20;;
6406;SDS011;3236;51.022;6.818;2022-07-06T02:17:48;10.02;;;4.05;;
6406;SDS011;3236;51.022;6.818;2022-07-06T02:20:15;6.22;;;4.03;;
6406;SDS011;3236;51.022;6.818;2022-07-06T02:22:42;10.43;;;4.32;;
6406;SDS011;3236;51.022;6.818;2022-07-06T02:25:09;7.93;;;3.95;;
6406;SDS011;3236;51.022;6.818;2022-07-06T02:27:36;8.02;;;4.47;;
6406;SDS011;3236;51.022;6.818;2022-07-06T02:30:05;6.35;;;5.28;;
6406;SDS011;3236;51.022;6.818;2022-07-06T02:32:33;5.68;;;4.25;;
6406;SDS011;3236;51.022;6.818;2022-07-06T02:35:00;9.85;;;3.97;;
6406;SDS011;3236;51.022;6.818;2022-07-06T02:37:30;5.97;;;3.92;;
6406;SDS011;3236;51.022;6.818;2022-07-06T02:40:03;7.90;;;3.65;;
6406;SDS011;3236;51.022;6.818;2022-07-06T02:46:25;11.38;;;3.67;;
6406;SDS011;3236;51.022;6.818;2022-07-06T02:48:52;7.65;;;3.70;;
6406;SDS011;3236;51.022;6.818;2022-07-06T02:51:19;4.40;;;3.67;;
6406;SDS011;3236;51.022;6.818;2022-07-06T02:53:46;8.73;;;4.05;;
6406;SDS011;3236;51.022;6.818;2022-07-06T02:56:13;6.00;;;3.53;;
6406;SDS011;3236;51.022;6.818;2022-07-06T02:58:40;7.05;;;3.88;;
6406;SDS011;3236;51.022;6.818;2022-07-06T03:01:07;4.90;;;3.55;;
6406;SDS011;3236;51.022;6.818;2022-07-06T03:03:36;4.78;;;4.00;;
6406;SDS011;3236;51.022;6.818;2022-07-06T03:06:09;8.85;;;4.00;;
6406;SDS011;3236;51.022;6.818;2022-07-06T03:08:36;8.88;;;3.83;;
6406;SDS011;3236;51.022;6.818;2022-07-06T03:11:06;5.75;;;3.58;;
6406;SDS011;3236;51.022;6.818;2022-07-06T03:13:35;6.47;;;4.00;;
6406;SDS011;3236;51.022;6.818;2022-07-06T03:16:02;8.15;;;3.78;;
6406;SDS011;3236;51.022;6.818;2022-07-06T03:18:30;6.18;;;4.70;;
6406;SDS011;3236;51.022;6.818;2022-07-06T03:20:59;7.35;;;4.60;;
6406;SDS011;3236;51.022;6.818;2022-07-06T03:23:29;12.43;;;5.07;;
6406;SDS011;3236;51.022;6.818;2022-07-06T03:25:56;8.07;;;4.97;;
6406;SDS011;3236;51.022;6.818;2022-07-06T03:28:26;9.18;;;5.22;;
6406;SDS011;3236;51.022;6.818;2022-07-06T03:30:56;8.82;;;4.72;;
6406;SDS011;3236;51.022;6.818;2022-07-06T03:33:23;11.32;;;4.53;;
6406;SDS011;3236;51.022;6.818;2022-07-06T03:35:50;6.00;;;4.38;;
6406;SDS011;3236;51.022;6.818;2022-07-06T03:38:19;7.60;;;4.40;;
6406;SDS011;3236;51.022;6.818;2022-07-06T03:40:46;7.57;;;4.50;;
6406;SDS011;3236;51.022;6.818;2022-07-06T03:43:13;6.97;;;4.30;;
6406;SDS011;3236;51.022;6.818;2022-07-06T03:45:40;6.07;;;4.47;;
6406;SDS011;3236;51.022;6.818;2022-07-06T03:48:07;7.00;;;4.82;;
6406;SDS011;3236;51.022;6.818;2022-07-06T03:50:34;9.15;;;4.82;;
6406;SDS011;3236;51.022;6.818;2022-07-06T03:53:01;8.98;;;4.60;;
6406;SDS011;3236;51.022;6.818;2022-07-06T03:55:29;7.75;;;5.03;;
6406;SDS011;3236;51.022;6.818;2022-07-06T03:57:57;9.35;;;4.80;;
6406;SDS011;3236;51.022;6.818;2022-07-06T04:00:24;7.85;;;4.47;;
6406;SDS011;3236;51.022;6.818;2022-07-06T04:02:54;7.40;;;4.05;;
6406;SDS011;3236;51.022;6.818;2022-07-06T04:05:21;8.80;;;4.85;;
6406;SDS011;3236;51.022;6.818;2022-07-06T04:07:48;6.55;;;4.55;;
6406;SDS011;3236;51.022;6.818;2022-07-06T04:10:21;19.33;;;5.95;;
6406;SDS011;3236;51.022;6.818;2022-07-06T04:12:50;7.40;;;4.80;;
6406;SDS011;3236;51.022;6.818;2022-07-06T04:15:17;7.93;;;4.18;;
6406;SDS011;3236;51.022;6.818;2022-07-06T04:17:44;5.95;;;4.47;;
6406;SDS011;3236;51.022;6.818;2022-07-06T04:20:21;11.75;;;5.38;;
6406;SDS011;3236;51.022;6.818;2022-07-06T04:22:51;6.45;;;4.93;;
6406;SDS011;3236;51.022;6.818;2022-07-06T04:25:18;8.52;;;5.88;;
6406;SDS011;3236;51.022;6.818;2022-07-06T04:27:45;9.73;;;5.22;;
6406;SDS011;3236;51.022;6.818;2022-07-06T04:30:14;10.70;;;5.57;;
6406;SDS011;3236;51.022;6.818;2022-07-06T04:32:41;11.07;;;5.57;;
6406;SDS011;3236;51.022;6.818;2022-07-06T04:35:08;11.60;;;6.15;;
6406;SDS011;3236;51.022;6.818;2022-07-06T04:37:35;9.07;;;6.00;;
6406;SDS011;3236;51.022;6.818;2022-07-06T04:40:03;10.88;;;6.32;;
6406;SDS011;3236;51.022;6.818;2022-07-06T04:42:30;9.30;;;5.70;;
6406;SDS011;3236;51.022;6.818;2022-07-06T04:44:57;8.57;;;5.53;;
6406;SDS011;3236;51.022;6.818;2022-07-06T04:47:26;8.43;;;5.63;;
6406;SDS011;3236;51.022;6.818;2022-07-06T04:49:53;10.13;;;4.95;;
6406;SDS011;3236;51.022;6.818;2022-07-06T04:52:20;11.65;;;5.03;;
6406;SDS011;3236;51.022;6.818;2022-07-06T04:54:47;10.50;;;5.47;;
6406;SDS011;3236;51.022;6.818;2022-07-06T04:57:15;8.15;;;4.65;;
6406;SDS011;3236;51.022;6.818;2022-07-06T04:59:42;13.60;;;5.75;;
6406;SDS011;3236;51.022;6.818;2022-07-06T05:02:09;7.68;;;4.95;;
6406;SDS011;3236;51.022;6.818;2022-07-06T05:04:38;5.88;;;4.78;;
6406;SDS011;3236;51.022;6.818;2022-07-06T05:07:05;10.15;;;4.97;;
6406;SDS011;3236;51.022;6.818;2022-07-06T05:09:33;12.07;;;5.38;;
6406;SDS011;3236;51.022;6.818;2022-07-06T05:12:00;8.20;;;4.35;;
6406;SDS011;3236;51.022;6.818;2022-07-06T05:14:27;10.48;;;4.75;;
6406;SDS011;3236;51.022;6.818;2022-07-06T05:16:55;10.02;;;4.78;;
6406;SDS011;3236;51.022;6.818;2022-07-06T05:19:22;7.13;;;4.40;;
6406;SDS011;3236;51.022;6.818;2022-07-06T05:21:50;5.35;;;3.83;;
6406;SDS011;3236;51.022;6.818;2022-07-06T05:24:17;8.73;;;3.80;;
6406;SDS011;3236;51.022;6.818;2022-07-06T05:26:45;8.90;;;4.00;;
6406;SDS011;3236;51.022;6.818;2022-07-06T05:29:12;9.10;;;4.05;;
6406;SDS011;3236;51.022;6.818;2022-07-06T05:31:40;7.07;;;4.10;;
6406;SDS011;3236;51.022;6.818;2022-07-06T05:34:07;5.88;;;3.78;;
6406;SDS011;3236;51.022;6.818;2022-07-06T05:36:34;9.05;;;4.32;;
6406;SDS011;3236;51.022;6.818;2022-07-06T05:39:02;7.78;;;4.22;;
6406;SDS011;3236;51.022;6.818;2022-07-06T05:41:29;6.60;;;3.92;;
6406;SDS011;3236;51.022;6.818;2022-07-06T05:43:56;7.45;;;3.85;;
6406;SDS011;3236;51.022;6.818;2022-07-06T05:46:23;9.25;;;3.78;;
6406;SDS011;3236;51.022;6.818;2022-07-06T05:48:50;9.68;;;3.65;;
6406;SDS011;3236;51.022;6.818;2022-07-06T05:51:35;9.40;;;3.78;;
6406;SDS011;3236;51.022;6.818;2022-07-06T05:54:04;9.57;;;3.63;;
6406;SDS011;3236;51.022;6.818;2022-07-06T05:56:31;5.18;;;2.95;;
6406;SDS011;3236;51.022;6.818;2022-07-06T05:58:58;10.60;;;3.65;;
6406;SDS011;3236;51.022;6.818;2022-07-06T06:01:25;4.38;;;2.85;;
6406;SDS011;3236;51.022;6.818;2022-07-06T06:03:52;5.28;;;2.78;;
6406;SDS011;3236;51.022;6.818;2022-07-06T06:06:19;7.00;;;2.75;;
6406;SDS011;3236;51.022;6.818;2022-07-06T06:08:46;8.68;;;2.97;;
6406;SDS011;3236;51.022;6.818;2022-07-06T06:11:14;8.48;;;2.50;;
6406;SDS011;3236;51.022;6.818;2022-07-06T06:13:42;4.38;;;2.20;;
6406;SDS011;3236;51.022;6.818;2022-07-06T06:16:09;5.82;;;2.13;;
6406;SDS011;3236;51.022;6.818;2022-07-06T06:18:36;4.90;;;2.30;;
6406;SDS011;3236;51.022;6.818;2022-07-06T06:21:03;4.55;;;2.00;;
6406;SDS011;3236;51.022;6.818;2022-07-06T06:23:30;6.85;;;2.30;;
6406;SDS011;3236;51.022;6.818;2022-07-06T06:25:57;7.50;;;2.17;;
6406;SDS011;3236;51.022;6.818;2022-07-06T06:28:26;3.60;;;2.45;;
6406;SDS011;3236;51.022;6.818;2022-07-06T06:30:53;6.63;;;2.42;;
6406;SDS011;3236;51.022;6.818;2022-07-06T06:33:20;7.18;;;2.42;;
6406;SDS011;3236;51.022;6.818;2022-07-06T06:35:48;5.85;;;2.40;;
6406;SDS011;3236;51.022;6.818;2022-07-06T06:38:17;12.57;;;2.80;;
6406;SDS011;3236;51.022;6.818;2022-07-06T06:40:48;4.15;;;2.50;;
6406;SDS011;3236;51.022;6.818;2022-07-06T06:43:15;5.25;;;2.72;;
6406;SDS011;3236;51.022;6.818;2022-07-06T06:45:43;6.45;;;2.20;;
6406;SDS011;3236;51.022;6.818;2022-07-06T06:48:11;9.15;;;2.47;;
6406;SDS011;3236;51.022;6.818;2022-07-06T06:50:38;4.63;;;2.25;;
6406;SDS011;3236;51.022;6.818;2022-07-06T06:53:05;6.72;;;2.22;;
6406;SDS011;3236;51.022;6.818;2022-07-06T06:55:32;7.20;;;1.70;;
6406;SDS011;3236;51.022;6.818;2022-07-06T06:58:00;3.38;;;1.70;;
6406;SDS011;3236;51.022;6.818;2022-07-06T07:00:27;6.63;;;2.35;;
6406;SDS011;3236;51.022;6.818;2022-07-06T07:02:55;7.00;;;1.83;;
6406;SDS011;3236;51.022;6.818;2022-07-06T07:05:22;4.28;;;1.90;;
6406;SDS011;3236;51.022;6.818;2022-07-06T07:07:49;5.75;;;1.85;;
6406;SDS011;3236;51.022;6.818;2022-07-06T07:10:16;2.00;;;1.48;;
6406;SDS011;3236;51.022;6.818;2022-07-06T07:12:44;6.47;;;2.50;;
6406;SDS011;3236;51.022;6.818;2022-07-06T07:15:11;4.07;;;1.60;;
6406;SDS011;3236;51.022;6.818;2022-07-06T07:17:39;4.30;;;1.60;;
6406;SDS011;3236;51.022;6.818;2022-07-06T07:20:08;3.90;;;1.63;;
6406;SDS011;3236;51.022;6.818;2022-07-06T07:22:36;8.60;;;1.70;;
6406;SDS011;3236;51.022;6.818;2022-07-06T07:25:03;7.80;;;1.50;;
6406;SDS011;3236;51.022;6.818;2022-07-06T07:27:31;3.85;;;1.50;;
6406;SDS011;3236;51.022;6.818;2022-07-06T07:29:59;3.22;;;1.50;;
6406;SDS011;3236;51.022;6.818;2022-07-06T07:32:26;5.18;;;1.80;;
6406;SDS011;3236;51.022;6.818;2022-07-06T07:34:53;4.30;;;1.63;;
6406;SDS011;3236;51.022;6.818;2022-07-06T07:37:22;7.78;;;1.65;;
6406;SDS011;3236;51.022;6.818;2022-07-06T07:39:52;5.72;;;1.55;;
6406;SDS011;3236;51.022;6.818;2022-07-06T07:42:19;6.00;;;1.10;;
6406;SDS011;3236;51.022;6.818;2022-07-06T07:44:46;5.88;;;1.88;;
6406;SDS011;3236;51.022;6.818;2022-07-06T07:47:13;4.72;;;1.70;;
6406;SDS011;3236;51.022;6.818;2022-07-06T07:49:40;6.03;;;1.40;;
6406;SDS011;3236;51.022;6.818;2022-07-06T07:52:08;6.50;;;1.27;;
6406;SDS011;3236;51.022;6.818;2022-07-06T07:54:44;2.85;;;0.90;;
6406;SDS011;3236;51.022;6.818;2022-07-06T07:57:11;4.30;;;1.10;;
6406;SDS011;3236;51.022;6.818;2022-07-06T07:59:38;5.78;;;1.23;;
6406;SDS011;3236;51.022;6.818;2022-07-06T08:02:04;4.95;;;1.08;;
6406;SDS011;3236;51.022;6.818;2022-07-06T08:04:32;4.40;;;1.05;;
6406;SDS011;3236;51.022;6.818;2022-07-06T08:06:59;2.58;;;1.00;;
6406;SDS011;3236;51.022;6.818;2022-07-06T08:09:27;1.65;;;1.10;;
6406;SDS011;3236;51.022;6.818;2022-07-06T08:11:56;3.65;;;1.10;;
6406;SDS011;3236;51.022;6.818;2022-07-06T08:14:23;1.50;;;0.80;;
6406;SDS011;3236;51.022;6.818;2022-07-06T08:16:50;2.88;;;0.95;;
6406;SDS011;3236;51.022;6.818;2022-07-06T08:19:17;3.70;;;0.98;;
6406;SDS011;3236;51.022;6.818;2022-07-06T08:21:45;4.93;;;1.00;;
6406;SDS011;3236;51.022;6.818;2022-07-06T08:24:12;5.82;;;0.90;;
6406;SDS011;3236;51.022;6.818;2022-07-06T08:26:39;2.90;;;1.02;;
6406;SDS011;3236;51.022;6.818;2022-07-06T08:29:13;4.32;;;1.27;;
6406;SDS011;3236;51.022;6.818;2022-07-06T08:31:41;4.28;;;0.90;;
6406;SDS011;3236;51.022;6.818;2022-07-06T08:34:08;5.57;;;1.05;;
6406;SDS011;3236;51.022;6.818;2022-07-06T08:36:35;2.45;;;0.77;;
6406;SDS011;3236;51.022;6.818;2022-07-06T08:39:02;1.88;;;0.80;;
6406;SDS011;3236;51.022;6.818;2022-07-06T08:41:29;3.53;;;0.82;;
6406;SDS011;3236;51.022;6.818;2022-07-06T08:43:57;3.72;;;0.90;;
6406;SDS011;3236;51.022;6.818;2022-07-06T08:46:26;3.38;;;1.20;;
6406;SDS011;3236;51.022;6.818;2022-07-06T08:48:56;4.88;;;0.90;;
6406;SDS011;3236;51.022;6.818;2022-07-06T08:51:26;2.38;;;1.00;;
6406;SDS011;3236;51.022;6.818;2022-07-06T08:53:57;4.00;;;0.98;;
6406;SDS011;3236;51.022;6.818;2022-07-06T08:56:25;3.53;;;1.33;;
6406;SDS011;3236;51.022;6.818;2022-07-06T08:58:54;1.23;;;0.70;;
6406;SDS011;3236;51.022;6.818;2022-07-06T09:01:22;2.75;;;1.05;;
6406;SDS011;3236;51.022;6.818;2022-07-06T09:03:54;3.70;;;0.90;;
6406;SDS011;3236;51.022;6.818;2022-07-06T09:06:23;5.13;;;0.90;;
6406;SDS011;3236;51.022;6.818;2022-07-06T09:08:52;2.15;;;0.90;;
6406;SDS011;3236;51.022;6.818;2022-07-06T09:11:22;7.50;;;0.93;;
6406;SDS011;3236;51.022;6.818;2022-07-06T09:13:50;2.92;;;1.20;;
6406;SDS011;3236;51.022;6.818;2022-07-06T09:16:24;4.15;;;1.00;;
6406;SDS011;3236;51.022;6.818;2022-07-06T09:18:54;2.65;;;0.88;;
6406;SDS011;3236;51.022;6.818;2022-07-06T09:21:24;1.80;;;0.85;;
6406;SDS011;3236;51.022;6.818;2022-07-06T09:23:53;2.35;;;0.73;;
6406;SDS011;3236;51.022;6.818;2022-07-06T09:26:22;4.57;;;0.98;;
6406;SDS011;3236;51.022;6.818;2022-07-06T09:28:49;7.85;;;1.02;;
6406;SDS011;3236;51.022;6.818;2022-07-06T09:31:17;4.85;;;1.40;;
6406;SDS011;3236;51.022;6.818;2022-07-06T09:33:56;11.23;;;1.45;;
6406;SDS011;3236;51.022;6.818;2022-07-06T09:36:41;3.70;;;1.00;;
6406;SDS011;3236;51.022;6.818;2022-07-06T09:41:53;1.83;;;0.82;;
6406;SDS011;3236;51.022;6.818;2022-07-06T09:44:22;4.28;;;0.95;;
6406;SDS011;3236;51.022;6.818;2022-07-06T09:46:51;3.38;;;1.00;;
6406;SDS011;3236;51.022;6.818;2022-07-06T09:49:19;4.90;;;1.13;;
6406;SDS011;3236;51.022;6.818;2022-07-06T09:51:50;3.65;;;1.13;;
6406;SDS011;3236;51.022;6.818;2022-07-06T09:54:18;4.05;;;0.90;;
6406;SDS011;3236;51.022;6.818;2022-07-06T09:56:47;7.97;;;0.98;;
6406;SDS011;3236;51.022;6.818;2022-07-06T09:59:18;2.15;;;0.80;;
6406;SDS011;3236;51.022;6.818;2022-07-06T10:01:46;1.10;;;0.70;;
6406;SDS011;3236;51.022;6.818;2022-07-06T10:04:16;1.52;;;1.42;;
6406;SDS011;3236;51.022;6.818;2022-07-06T10:06:47;2.28;;;0.90;;
6406;SDS011;3236;51.022;6.818;2022-07-06T10:09:14;3.92;;;0.80;;
6406;SDS011;3236;51.022;6.818;2022-07-06T10:11:42;2.60;;;0.70;;
6406;SDS011;3236;51.022;6.818;2022-07-06T10:14:25;4.93;;;1.40;;
6406;SDS011;3236;51.022;6.818;2022-07-06T10:16:57;3.30;;;1.00;;
6406;SDS011;3236;51.022;6.818;2022-07-06T10:19:25;4.32;;;0.70;;
6406;SDS011;3236;51.022;6.818;2022-07-06T10:22:00;3.55;;;0.70;;
6406;SDS011;3236;51.022;6.818;2022-07-06T10:24:28;0.60;;;0.60;;
6406;SDS011;3236;51.022;6.818;2022-07-06T10:26:58;0.88;;;0.60;;
6406;SDS011;3236;51.022;6.818;2022-07-06T10:29:26;5.95;;;0.70;;
6406;SDS011;3236;51.022;6.818;2022-07-06T10:31:54;4.57;;;0.70;;
6406;SDS011;3236;51.022;6.818;2022-07-06T10:34:21;1.10;;;0.80;;
6406;SDS011;3236;51.022;6.818;2022-07-06T10:36:50;1.77;;;0.60;;
6406;SDS011;3236;51.022;6.818;2022-07-06T10:39:32;2.65;;;0.90;;
6406;SDS011;3236;51.022;6.818;2022-07-06T10:48:18;3.88;;;0.70;;
6406;SDS011;3236;51.022;6.818;2022-07-06T10:50:47;1.77;;;0.80;;
6406;SDS011;3236;51.022;6.818;2022-07-06T10:53:16;3.90;;;1.10;;
6406;SDS011;3236;51.022;6.818;2022-07-06T10:55:45;3.05;;;0.70;;
6406;SDS011;3236;51.022;6.818;2022-07-06T10:58:15;3.03;;;0.85;;
6406;SDS011;3236;51.022;6.818;2022-07-06T11:01:02;2.45;;;0.80;;
6406;SDS011;3236;51.022;6.818;2022-07-06T11:03:37;1.23;;;0.93;;
6406;SDS011;3236;51.022;6.818;2022-07-06T11:06:08;3.35;;;0.90;;
6406;SDS011;3236;51.022;6.818;2022-07-06T11:08:53;1.30;;;0.90;;
6406;SDS011;3236;51.022;6.818;2022-07-06T11:11:24;20.08;;;3.95;;
6406;SDS011;3236;51.022;6.818;2022-07-06T11:13:52;1.60;;;0.80;;
6406;SDS011;3236;51.022;6.818;2022-07-06T11:16:22;2.67;;;0.98;;
6406;SDS011;3236;51.022;6.818;2022-07-06T11:19:08;2.30;;;0.90;;
6406;SDS011;3236;51.022;6.818;2022-07-06T11:21:37;5.10;;;1.30;;
6406;SDS011;3236;51.022;6.818;2022-07-06T11:24:06;3.63;;;1.08;;
6406;SDS011;3236;51.022;6.818;2022-07-06T11:26:36;3.03;;;0.82;;
6406;SDS011;3236;51.022;6.818;2022-07-06T11:29:04;2.88;;;1.13;;
6406;SDS011;3236;51.022;6.818;2022-07-06T11:31:33;0.95;;;0.90;;
6406;SDS011;3236;51.022;6.818;2022-07-06T11:34:02;1.15;;;1.00;;
6406;SDS011;3236;51.022;6.818;2022-07-06T11:36:30;1.63;;;1.13;;
6406;SDS011;3236;51.022;6.818;2022-07-06T11:38:58;4.50;;;1.20;;
6406;SDS011;3236;51.022;6.818;2022-07-06T11:41:25;2.88;;;1.05;;
6406;SDS011;3236;51.022;6.818;2022-07-06T11:43:54;1.40;;;1.00;;
6406;SDS011;3236;51.022;6.818;2022-07-06T11:46:22;1.83;;;0.90;;
6406;SDS011;3236;51.022;6.818;2022-07-06T11:48:51;3.90;;;0.82;;
6406;SDS011;3236;51.022;6.818;2022-07-06T11:51:20;1.67;;;1.20;;
6406;SDS011;3236;51.022;6.818;2022-07-06T11:53:49;3.47;;;1.00;;
6406;SDS011;3236;51.022;6.818;2022-07-06T11:56:17;5.07;;;1.00;;
6406;SDS011;3236;51.022;6.818;2022-07-06T11:58:49;4.28;;;1.30;;
6406;SDS011;3236;51.022;6.818;2022-07-06T12:01:18;2.53;;;1.00;;
6406;SDS011;3236;51.022;6.818;2022-07-06T12:03:45;3.03;;;1.00;;
6406;SDS011;3236;51.022;6.818;2022-07-06T12:06:14;2.95;;;1.02;;
6406;SDS011;3236;51.022;6.818;2022-07-06T12:08:45;3.03;;;0.90;;
6406;SDS011;3236;51.022;6.818;2022-07-06T12:11:17;3.15;;;1.30;;
6406;SDS011;3236;51.022;6.818;2022-07-06T12:13:50;8.55;;;1.23;;
6406;SDS011;3236;51.022;6.818;2022-07-06T12:16:20;3.30;;;1.20;;
6406;SDS011;3236;51.022;6.818;2022-07-06T12:18:49;5.13;;;1.13;;
6406;SDS011;3236;51.022;6.818;2022-07-06T12:21:17;2.08;;;1.35;;
6406;SDS011;3236;51.022;6.818;2022-07-06T12:23:47;1.98;;;1.10;;
6406;SDS011;3236;51.022;6.818;2022-07-06T12:26:15;2.60;;;0.85;;
6406;SDS011;3236;51.022;6.818;2022-07-06T12:28:44;3.15;;;1.10;;
6406;SDS011;3236;51.022;6.818;2022-07-06T12:34:01;4.90;;;1.00;;
6406;SDS011;3236;51.022;6.818;2022-07-06T12:36:29;3.65;;;1.08;;
6406;SDS011;3236;51.022;6.818;2022-07-06T12:38:57;6.15;;;1.17;;
6406;SDS011;3236;51.022;6.818;2022-07-06T12:41:29;4.65;;;0.95;;
6406;SDS011;3236;51.022;6.818;2022-07-06T12:44:05;11.32;;;1.67;;
6406;SDS011;3236;51.022;6.818;2022-07-06T12:46:36;3.15;;;0.80;;
6406;SDS011;3236;51.022;6.818;2022-07-06T12:49:12;4.72;;;0.90;;
6406;SDS011;3236;51.022;6.818;2022-07-06T12:51:53;1.98;;;1.00;;
6406;SDS011;3236;51.022;6.818;2022-07-06T12:54:24;2.85;;;1.00;;
6406;SDS011;3236;51.022;6.818;2022-07-06T12:56:55;2.88;;;0.70;;
6406;SDS011;3236;51.022;6.818;2022-07-06T12:59:42;3.03;;;1.00;;
6406;SDS011;3236;51.022;6.818;2022-07-06T13:02:18;1.63;;;0.73;;
6406;SDS011;3236;51.022;6.818;2022-07-06T13:04:55;1.55;;;1.00;;
6406;SDS011;3236;51.022;6.818;2022-07-06T13:07:23;4.75;;;0.88;;
6406;SDS011;3236;51.022;6.818;2022-07-06T13:09:52;3.13;;;0.82;;
6406;SDS011;3236;51.022;6.818;2022-07-06T13:12:19;4.80;;;0.98;;
6406;SDS011;3236;51.022;6.818;2022-07-06T13:14:46;2.25;;;0.93;;
6406;SDS011;3236;51.022;6.818;2022-07-06T13:17:14;0.95;;;0.80;;
6406;SDS011;3236;51.022;6.818;2022-07-06T13:19:42;3.97;;;0.75;;
6406;SDS011;3236;51.022;6.818;2022-07-06T13:22:09;3.58;;;0.93;;
6406;SDS011;3236;51.022;6.818;2022-07-06T13:24:37;3.95;;;1.20;;
6406;SDS011;3236;51.022;6.818;2022-07-06T13:27:04;2.13;;;0.77;;
6406;SDS011;3236;51.022;6.818;2022-07-06T13:29:32;2.88;;;0.80;;
6406;SDS011;3236;51.022;6.818;2022-07-06T13:31:59;3.17;;;1.02;;
6406;SDS011;3236;51.022;6.818;2022-07-06T13:34:26;9.18;;;1.13;;
6406;SDS011;3236;51.022;6.818;2022-07-06T13:36:55;4.70;;;0.90;;
6406;SDS011;3236;51.022;6.818;2022-07-06T13:39:22;2.40;;;0.73;;
6406;SDS011;3236;51.022;6.818;2022-07-06T13:41:52;1.90;;;0.98;;
6406;SDS011;3236;51.022;6.818;2022-07-06T13:44:20;6.85;;;1.00;;
6406;SDS011;3236;51.022;6.818;2022-07-06T13:46:47;2.05;;;0.95;;
6406;SDS011;3236;51.022;6.818;2022-07-06T13:49:16;3.45;;;0.90;;
6406;SDS011;3236;51.022;6.818;2022-07-06T13:51:43;1.15;;;0.60;;
6406;SDS011;3236;51.022;6.818;2022-07-06T13:54:12;4.50;;;1.15;;
6406;SDS011;3236;51.022;6.818;2022-07-06T13:56:43;2.67;;;0.93;;
6406;SDS011;3236;51.022;6.818;2022-07-06T13:59:10;1.77;;;0.68;;
6406;SDS011;3236;51.022;6.818;2022-07-06T14:01:37;4.03;;;1.00;;
6406;SDS011;3236;51.022;6.818;2022-07-06T14:04:05;3.58;;;0.90;;
6406;SDS011;3236;51.022;6.818;2022-07-06T14:06:32;1.75;;;1.40;;
6406;SDS011;3236;51.022;6.818;2022-07-06T14:09:00;1.42;;;0.80;;
6406;SDS011;3236;51.022;6.818;2022-07-06T14:11:29;1.67;;;0.80;;
6406;SDS011;3236;51.022;6.818;2022-07-06T14:13:56;3.55;;;0.85;;
6406;SDS011;3236;51.022;6.818;2022-07-06T14:16:26;1.08;;;0.75;;
6406;SDS011;3236;51.022;6.818;2022-07-06T14:18:54;3.35;;;0.80;;
6406;SDS011;3236;51.022;6.818;2022-07-06T14:21:21;2.08;;;0.80;;
6406;SDS011;3236;51.022;6.818;2022-07-06T14:23:48;3.60;;;0.90;;
6406;SDS011;3236;51.022;6.818;2022-07-06T14:26:16;1.95;;;1.00;;
6406;SDS011;3236;51.022;6.818;2022-07-06T14:28:45;11.27;;;1.67;;
6406;SDS011;3236;51.022;6.818;2022-07-06T14:31:12;2.55;;;0.90;;
6406;SDS011;3236;51.022;6.818;2022-07-06T14:33:39;2.35;;;0.82;;
6406;SDS011;3236;51.022;6.818;2022-07-06T14:36:07;3.70;;;1.00;;
6406;SDS011;3236;51.022;6.818;2022-07-06T14:38:37;3.80;;;1.42;;
6406;SDS011;3236;51.022;6.818;2022-07-06T14:41:05;3.83;;;1.08;;
6406;SDS011;3236;51.022;6.818;2022-07-06T14:43:33;3.50;;;1.00;;
6406;SDS011;3236;51.022;6.818;2022-07-06T14:46:03;3.47;;;1.10;;
6406;SDS011;3236;51.022;6.818;2022-07-06T14:48:30;5.63;;;0.95;;
6406;SDS011;3236;51.022;6.818;2022-07-06T14:51:00;3.03;;;1.10;;
6406;SDS011;3236;51.022;6.818;2022-07-06T14:53:34;3.47;;;1.13;;
6406;SDS011;3236;51.022;6.818;2022-07-06T14:56:23;2.83;;;1.05;;
6406;SDS011;3236;51.022;6.818;2022-07-06T14:58:54;3.05;;;0.85;;
6406;SDS011;3236;51.022;6.818;2022-07-06T15:01:23;3.40;;;0.90;;
6406;SDS011;3236;51.022;6.818;2022-07-06T15:03:52;3.88;;;0.88;;
6406;SDS011;3236;51.022;6.818;2022-07-06T15:06:19;1.52;;;0.80;;
6406;SDS011;3236;51.022;6.818;2022-07-06T15:08:46;5.40;;;1.35;;
6406;SDS011;3236;51.022;6.818;2022-07-06T15:11:13;1.25;;;0.77;;
6406;SDS011;3236;51.022;6.818;2022-07-06T15:13:48;1.48;;;0.85;;
6406;SDS011;3236;51.022;6.818;2022-07-06T15:16:15;5.85;;;1.23;;
6406;SDS011;3236;51.022;6.818;2022-07-06T15:18:43;3.78;;;0.80;;
6406;SDS011;3236;51.022;6.818;2022-07-06T15:21:10;2.85;;;0.77;;
6406;SDS011;3236;51.022;6.818;2022-07-06T15:23:37;2.78;;;0.88;;
6406;SDS011;3236;51.022;6.818;2022-07-06T15:26:04;8.68;;;1.00;;
6406;SDS011;3236;51.022;6.818;2022-07-06T15:28:32;5.03;;;1.08;;
6406;SDS011;3236;51.022;6.818;2022-07-06T15:30:59;5.25;;;1.10;;
6406;SDS011;3236;51.022;6.818;2022-07-06T15:33:26;3.25;;;0.80;;
6406;SDS011;3236;51.022;6.818;2022-07-06T15:35:55;4.50;;;1.60;;
6406;SDS011;3236;51.022;6.818;2022-07-06T15:38:22;3.80;;;0.90;;
6406;SDS011;3236;51.022;6.818;2022-07-06T15:40:49;2.85;;;1.02;;